Terminal Aerodrome Forecast
Issued by NWS

Home | Current Version | Previous Version | Text Only | Print | Product List | Glossary On
Versions: 1 2 3 4 5 6 7 8 9 10 11 12 13 14 15
338
FTUS41 KLWX 051132
TAFMTN
TAF
KMTN 051132Z 0512/0612 22004KT P6SM BKN008 OVC035
     FM051400 26006KT P6SM SCT008 BKN050
     FM051600 29008G16KT P6SM BKN050
     FM052200 30006KT P6SM SCT200
     FM060500 VRB04KT P6SM OVC200=

USA.gov is the U.S. government's official web portal to all federal, state and local government web resources and services.